createdAt,value
2016-08-31T00:00:22.578Z,1016.73
2016-08-31T00:01:22.586Z,1016.72
2016-08-31T00:02:22.638Z,1016.7
2016-08-31T00:03:22.595Z,1016.69
2016-08-31T00:04:22.603Z,1016.67
2016-08-31T00:05:22.757Z,1016.63
2016-08-31T00:06:22.618Z,1016.66
2016-08-31T00:07:22.625Z,1016.68
2016-08-31T00:08:22.631Z,1016.61
2016-08-31T00:09:22.642Z,1016.6
2016-08-31T00:10:22.647Z,1016.6
2016-08-31T00:11:22.655Z,1016.62
2016-08-31T00:12:22.664Z,1016.62
2016-08-31T00:13:22.671Z,1016.62
2016-08-31T00:14:22.678Z,1016.62
2016-08-31T00:15:22.686Z,1016.66
2016-08-31T00:16:22.692Z,1016.65
2016-08-31T00:17:22.701Z,1016.63
2016-08-31T00:18:22.706Z,1016.65
2016-08-31T00:19:22.712Z,1016.6
2016-08-31T00:20:22.723Z,1016.59
2016-08-31T00:21:22.729Z,1016.59
2016-08-31T00:22:22.737Z,1016.59
2016-08-31T00:23:22.743Z,1016.55
2016-08-31T00:24:22.752Z,1016.54
2016-08-31T00:25:22.759Z,1016.56
2016-08-31T00:26:22.766Z,1016.54
2016-08-31T00:27:22.779Z,1016.53
2016-08-31T00:28:22.782Z,1016.52
2016-08-31T00:29:22.787Z,1016.52
2016-08-31T00:30:22.797Z,1016.52
2016-08-31T00:31:22.803Z,1016.5
2016-08-31T00:32:22.809Z,1016.5
2016-08-31T00:33:22.819Z,1016.51
2016-08-31T00:34:22.825Z,1016.5
2016-08-31T00:35:22.833Z,1016.47
2016-08-31T00:36:22.839Z,1016.46
2016-08-31T00:37:22.847Z,1016.47
2016-08-31T00:38:22.855Z,1016.42
2016-08-31T00:39:22.862Z,1016.42
2016-08-31T00:40:22.869Z,1016.44
2016-08-31T00:41:22.878Z,1016.42
2016-08-31T00:42:22.884Z,1016.4
2016-08-31T00:43:22.892Z,1016.38
2016-08-31T00:44:22.898Z,1016.38
2016-08-31T00:45:22.906Z,1016.34
2016-08-31T00:46:22.914Z,1016.34
2016-08-31T00:47:22.920Z,1016.36
2016-08-31T00:48:22.928Z,1016.35
2016-08-31T00:49:22.935Z,1016.38
2016-08-31T00:50:22.943Z,1016.37
2016-08-31T00:51:22.948Z,1016.33
2016-08-31T00:52:22.957Z,1016.35
2016-08-31T00:53:22.962Z,1016.36
2016-08-31T00:54:23.021Z,1016.3
2016-08-31T00:55:22.978Z,1016.32
2016-08-31T00:56:22.987Z,1016.26
2016-08-31T00:57:22.995Z,1016.27
2016-08-31T00:58:23.001Z,1016.27
2016-08-31T00:59:23.010Z,1016.26
2016-08-31T01:00:23.017Z,1016.27
2016-08-31T01:01:23.030Z,1016.26
2016-08-31T01:02:23.029Z,1016.27
2016-08-31T01:03:23.036Z,1016.23
2016-08-31T01:04:23.044Z,1016.24
2016-08-31T01:05:23.753Z,1016.18
2016-08-31T01:06:23.058Z,1016.18
2016-08-31T01:07:23.066Z,1016.14
2016-08-31T01:08:23.075Z,1016.15
2016-08-31T01:09:23.080Z,1016.08
2016-08-31T01:10:23.089Z,1016.07
2016-08-31T01:11:23.095Z,1016.08
2016-08-31T01:12:23.103Z,1016.11
2016-08-31T01:13:23.109Z,1016.07
2016-08-31T01:14:23.118Z,1016.1
2016-08-31T01:15:23.124Z,1016.08
2016-08-31T01:16:24.282Z,1016.07
2016-08-31T01:17:23.138Z,1016.04
2016-08-31T01:18:23.146Z,1016.05
2016-08-31T01:19:23.159Z,1016.04
2016-08-31T01:20:23.162Z,1016.04
2016-08-31T01:21:23.166Z,1016.02
2016-08-31T01:22:23.173Z,1016
2016-08-31T01:23:23.181Z,1016.01
2016-08-31T01:24:23.188Z,1016.04
2016-08-31T01:25:23.195Z,1016
2016-08-31T01:26:23.202Z,1016.03
2016-08-31T01:27:23.207Z,1015.99
2016-08-31T01:28:23.214Z,1016.02
2016-08-31T01:29:23.221Z,1015.98
2016-08-31T01:30:23.231Z,1016.01
2016-08-31T01:31:23.233Z,1016.02
2016-08-31T01:32:23.238Z,1015.97
2016-08-31T01:33:23.247Z,1015.96
2016-08-31T01:34:23.251Z,1016.03
2016-08-31T01:35:23.258Z,1016.02
2016-08-31T01:36:23.366Z,1015.98
2016-08-31T01:37:23.271Z,1015.98
2016-08-31T01:38:23.278Z,1016.03
2016-08-31T01:39:23.284Z,1016.02
2016-08-31T01:40:23.290Z,1016.01
2016-08-31T01:41:23.298Z,1016.04
2016-08-31T01:42:23.304Z,1016.03
2016-08-31T01:43:23.311Z,1015.98
2016-08-31T01:44:23.318Z,1015.99
2016-08-31T01:45:23.322Z,1015.99
2016-08-31T01:46:23.329Z,1015.95
2016-08-31T01:47:23.687Z,1015.91
2016-08-31T01:48:23.344Z,1015.91
2016-08-31T01:49:23.347Z,1015.86
2016-08-31T01:50:23.355Z,1015.84
2016-08-31T01:51:23.361Z,1015.85
2016-08-31T01:52:23.367Z,1015.85
2016-08-31T01:53:23.373Z,1015.85
2016-08-31T01:54:23.381Z,1015.86
2016-08-31T01:56:23.394Z,1015.84
2016-08-31T01:57:23.401Z,1015.86
2016-08-31T01:58:24.159Z,1015.86
2016-08-31T01:59:23.416Z,1015.83
2016-08-31T02:00:23.420Z,1015.81
2016-08-31T02:01:23.440Z,1015.82
2016-08-31T02:02:23.435Z,1015.84
2016-08-31T02:03:23.441Z,1015.82
2016-08-31T02:04:23.448Z,1015.82
2016-08-31T02:05:23.456Z,1015.86
2016-08-31T02:06:23.461Z,1015.83
2016-08-31T02:07:23.468Z,1015.86
2016-08-31T02:08:23.526Z,1015.82
2016-08-31T02:09:23.484Z,1015.82
2016-08-31T02:10:23.492Z,1015.81
2016-08-31T02:11:23.498Z,1015.81
2016-08-31T02:12:23.503Z,1015.82
2016-08-31T02:13:23.511Z,1015.8
2016-08-31T02:14:23.518Z,1015.73
2016-08-31T02:15:23.526Z,1015.75
2016-08-31T02:16:23.535Z,1015.74
2016-08-31T02:17:23.543Z,1015.74
2016-08-31T02:18:23.546Z,1015.73
2016-08-31T02:19:23.554Z,1015.75
2016-08-31T02:20:23.561Z,1015.74
2016-08-31T02:21:23.569Z,1015.75
2016-08-31T02:22:23.578Z,1015.71
2016-08-31T02:23:23.583Z,1015.72
2016-08-31T02:24:23.587Z,1015.67
2016-08-31T02:25:23.597Z,1015.7
2016-08-31T02:26:23.604Z,1015.67
2016-08-31T02:27:23.611Z,1015.67
2016-08-31T02:28:23.616Z,1015.68
2016-08-31T02:29:23.623Z,1015.65
2016-08-31T02:30:23.630Z,1015.66
2016-08-31T02:31:23.638Z,1015.6
2016-08-31T02:32:23.645Z,1015.64
2016-08-31T02:33:23.664Z,1015.6
2016-08-31T02:34:23.659Z,1015.63
2016-08-31T02:35:23.667Z,1015.62
2016-08-31T02:36:23.672Z,1015.62
2016-08-31T02:37:23.679Z,1015.61
2016-08-31T02:38:23.686Z,1015.61
2016-08-31T02:39:23.695Z,1015.57
2016-08-31T02:40:23.700Z,1015.6
2016-08-31T02:41:23.708Z,1015.61
2016-08-31T02:42:23.716Z,1015.64
2016-08-31T02:43:23.724Z,1015.6
2016-08-31T02:44:23.728Z,1015.59
2016-08-31T02:45:23.736Z,1015.6
2016-08-31T02:46:23.744Z,1015.59
2016-08-31T02:47:23.801Z,1015.56
2016-08-31T02:48:23.758Z,1015.57
2016-08-31T02:49:23.764Z,1015.54
2016-08-31T02:50:23.774Z,1015.56
2016-08-31T02:51:23.778Z,1015.54
2016-08-31T02:52:23.787Z,1015.53
2016-08-31T02:53:23.795Z,1015.53
2016-08-31T02:54:23.800Z,1015.53
2016-08-31T02:55:23.809Z,1015.52
2016-08-31T02:56:23.815Z,1015.54
2016-08-31T02:57:23.824Z,1015.53
2016-08-31T02:58:23.831Z,1015.53
2016-08-31T02:59:23.837Z,1015.53
2016-08-31T03:00:23.847Z,1015.51
2016-08-31T03:01:23.853Z,1015.52
2016-08-31T03:02:23.860Z,1015.49
2016-08-31T03:03:23.868Z,1015.5
2016-08-31T03:04:23.875Z,1015.49
2016-08-31T03:05:23.882Z,1015.5
2016-08-31T03:06:23.890Z,1015.5
2016-08-31T03:07:23.897Z,1015.53
2016-08-31T03:08:23.953Z,1015.48
2016-08-31T03:09:23.911Z,1015.47
2016-08-31T03:10:23.919Z,1015.51
2016-08-31T03:11:23.926Z,1015.47
2016-08-31T03:12:23.935Z,1015.46
2016-08-31T03:13:23.943Z,1015.47
2016-08-31T03:14:23.948Z,1015.48
2016-08-31T03:15:23.957Z,1015.48
2016-08-31T03:16:23.964Z,1015.48
2016-08-31T03:17:24.470Z,1015.43
2016-08-31T03:18:23.978Z,1015.44
2016-08-31T03:19:23.986Z,1015.45
2016-08-31T03:20:23.993Z,1015.45
2016-08-31T03:21:24.001Z,1015.44
2016-08-31T03:22:24.023Z,1015.4
2016-08-31T03:23:24.016Z,1015.38
2016-08-31T03:24:24.023Z,1015.39
2016-08-31T03:25:24.031Z,1015.45
2016-08-31T03:26:24.038Z,1015.39
2016-08-31T03:27:24.046Z,1015.41
2016-08-31T03:28:24.906Z,1015.4
2016-08-31T03:29:24.061Z,1015.41
2016-08-31T03:30:24.068Z,1015.39
2016-08-31T03:31:24.076Z,1015.39
2016-08-31T03:32:24.082Z,1015.39
2016-08-31T03:33:24.090Z,1015.37
2016-08-31T03:34:24.098Z,1015.4
2016-08-31T03:35:24.104Z,1015.38
2016-08-31T03:36:24.112Z,1015.38
2016-08-31T03:37:24.120Z,1015.41
2016-08-31T03:38:24.128Z,1015.4
2016-08-31T03:39:24.135Z,1015.4
2016-08-31T03:40:24.144Z,1015.39
2016-08-31T03:41:24.155Z,1015.36
2016-08-31T03:42:24.157Z,1015.37
2016-08-31T03:43:24.164Z,1015.35
2016-08-31T03:44:24.172Z,1015.36
2016-08-31T03:45:24.180Z,1015.32
2016-08-31T03:46:24.187Z,1015.33
2016-08-31T03:47:24.195Z,1015.32
2016-08-31T03:48:24.202Z,1015.32
2016-08-31T03:49:24.209Z,1015.31
2016-08-31T03:50:24.217Z,1015.26
2016-08-31T03:51:24.226Z,1015.27
2016-08-31T03:52:24.231Z,1015.25
2016-08-31T03:53:24.239Z,1015.26
2016-08-31T03:54:24.246Z,1015.26
2016-08-31T03:55:24.255Z,1015.28
2016-08-31T03:56:24.261Z,1015.24
2016-08-31T03:57:24.274Z,1015.25
2016-08-31T03:58:24.277Z,1015.28
2016-08-31T03:59:24.684Z,1015.25
2016-08-31T04:00:24.290Z,1015.26
2016-08-31T04:01:24.298Z,1015.25
2016-08-31T04:02:24.305Z,1015.2
2016-08-31T04:03:24.314Z,1015.27
2016-08-31T04:04:24.320Z,1015.21
2016-08-31T04:05:24.328Z,1015.23
2016-08-31T04:06:24.348Z,1015.23
2016-08-31T04:07:24.341Z,1015.24
2016-08-31T04:08:24.350Z,1015.24
2016-08-31T04:09:24.407Z,1015.2
2016-08-31T04:10:25.416Z,1015.19
2016-08-31T04:11:24.371Z,1015.18
2016-08-31T04:12:24.380Z,1015.19
2016-08-31T04:13:24.387Z,1015.17
2016-08-31T04:14:24.395Z,1015.22
2016-08-31T04:15:24.402Z,1015.23
2016-08-31T04:16:24.408Z,1015.18
2016-08-31T04:17:24.416Z,1015.19
2016-08-31T04:18:24.424Z,1015.21
2016-08-31T04:19:24.431Z,1015.2
2016-08-31T04:20:24.438Z,1015.21
2016-08-31T04:21:24.444Z,1015.22
2016-08-31T04:22:24.452Z,1015.24
2016-08-31T04:23:24.460Z,1015.23
2016-08-31T04:24:24.467Z,1015.22
2016-08-31T04:25:24.474Z,1015.27
2016-08-31T04:26:24.485Z,1015.2
2016-08-31T04:27:24.490Z,1015.17
2016-08-31T04:28:24.496Z,1015.21
2016-08-31T04:29:24.505Z,1015.21
2016-08-31T04:30:24.611Z,1015.2
2016-08-31T04:31:24.519Z,1015.21
2016-08-31T04:32:24.526Z,1015.15
2016-08-31T04:33:24.534Z,1015.15
2016-08-31T04:34:24.541Z,1015.19
2016-08-31T04:35:24.549Z,1015.2
2016-08-31T04:36:24.556Z,1015.18
2016-08-31T04:37:24.565Z,1015.17
2016-08-31T04:38:24.572Z,1015.15
2016-08-31T04:39:24.578Z,1015.17
2016-08-31T04:40:24.585Z,1015.14
2016-08-31T04:41:25.246Z,1015.15
2016-08-31T04:42:24.598Z,1015.14
2016-08-31T04:43:24.608Z,1015.13
2016-08-31T04:44:24.613Z,1015.1
2016-08-31T04:45:24.621Z,1015.12
2016-08-31T04:46:24.629Z,1015.12
2016-08-31T04:47:24.634Z,1015.12
2016-08-31T04:48:24.643Z,1015.11
2016-08-31T04:49:24.650Z,1015.07
2016-08-31T04:50:24.658Z,1015.11
2016-08-31T04:51:24.665Z,1015.06
2016-08-31T04:52:25.824Z,1015.1
2016-08-31T04:53:24.679Z,1015.06
2016-08-31T04:54:24.686Z,1015.07
2016-08-31T04:55:24.694Z,1015.08
2016-08-31T04:56:24.702Z,1015.05
2016-08-31T04:57:24.709Z,1015.08
2016-08-31T04:58:24.716Z,1015.07
2016-08-31T04:59:24.723Z,1015.06
2016-08-31T05:00:24.731Z,1015.07
2016-08-31T05:01:24.739Z,1015.09
2016-08-31T05:02:24.746Z,1015.09
2016-08-31T05:03:24.760Z,1015.1
2016-08-31T05:04:24.762Z,1015.11
2016-08-31T05:05:24.771Z,1015.12
2016-08-31T05:06:24.775Z,1015.11
2016-08-31T05:07:24.785Z,1015.07
2016-08-31T05:08:24.791Z,1015.09
2016-08-31T05:09:24.796Z,1015.12
2016-08-31T05:10:24.804Z,1015.07
2016-08-31T05:11:24.810Z,1015.04
2016-08-31T05:12:24.820Z,1015.02
2016-08-31T05:13:24.828Z,1015.04
2016-08-31T05:14:24.833Z,1015
2016-08-31T05:15:24.892Z,1015
2016-08-31T05:16:24.849Z,1014.97
2016-08-31T05:17:24.856Z,1014.96
2016-08-31T05:18:24.863Z,1014.97
2016-08-31T05:19:24.871Z,1014.95
2016-08-31T05:20:24.878Z,1014.96
2016-08-31T05:21:24.935Z,1014.99
2016-08-31T05:22:24.892Z,1014.99
2016-08-31T05:23:24.900Z,1014.99
2016-08-31T05:24:24.909Z,1015
2016-08-31T05:25:24.917Z,1014.97
2016-08-31T05:26:24.923Z,1014.99
2016-08-31T05:27:24.932Z,1014.94
2016-08-31T05:28:24.938Z,1014.95
2016-08-31T05:29:24.945Z,1014.92
2016-08-31T05:30:24.953Z,1014.96
2016-08-31T05:31:24.962Z,1014.93
2016-08-31T05:32:24.967Z,1014.98
2016-08-31T05:33:25.027Z,1014.99
2016-08-31T05:34:24.982Z,1014.96
2016-08-31T05:35:24.990Z,1014.96
2016-08-31T05:36:24.996Z,1014.99
2016-08-31T05:37:25.004Z,1014.96
2016-08-31T05:38:25.164Z,1015.02
2016-08-31T05:39:25.020Z,1015
2016-08-31T05:40:25.029Z,1014.98
2016-08-31T05:41:25.036Z,1015.01
2016-08-31T05:42:25.042Z,1015
2016-08-31T05:43:25.050Z,1014.98
2016-08-31T05:44:25.058Z,1015
2016-08-31T05:45:25.066Z,1014.99
2016-08-31T05:46:25.075Z,1014.98
2016-08-31T05:47:25.081Z,1014.98
2016-08-31T05:48:25.089Z,1014.99
2016-08-31T05:49:25.095Z,1014.98
2016-08-31T05:50:25.102Z,1015.09
2016-08-31T05:51:25.110Z,1015.03
2016-08-31T05:52:25.118Z,1015.06
2016-08-31T05:53:25.125Z,1015.06
2016-08-31T05:54:25.133Z,1015.08
2016-08-31T05:55:25.141Z,1015.08
2016-08-31T05:56:25.148Z,1015.08
2016-08-31T05:57:25.154Z,1015.06
2016-08-31T05:58:25.167Z,1015.06
2016-08-31T05:59:25.171Z,1015.04
2016-08-31T06:00:25.178Z,1015.03
2016-08-31T06:01:25.184Z,1015.03
2016-08-31T06:02:25.193Z,1015.04
2016-08-31T06:03:25.200Z,1015.03
2016-08-31T06:04:25.208Z,1014.97
2016-08-31T06:05:25.216Z,1015.04
2016-08-31T06:06:25.222Z,1015.07
2016-08-31T06:07:25.229Z,1015.07
2016-08-31T06:08:25.238Z,1015.09
2016-08-31T06:09:25.245Z,1015.05
2016-08-31T06:10:25.252Z,1015.07
2016-08-31T06:11:25.259Z,1015.03
2016-08-31T06:12:25.269Z,1015.03
2016-08-31T06:13:25.275Z,1015.04
2016-08-31T06:14:25.282Z,1014.97
2016-08-31T06:15:25.341Z,1015.03
2016-08-31T06:16:25.298Z,1015
2016-08-31T06:17:25.306Z,1014.95
2016-08-31T06:18:25.313Z,1014.97
2016-08-31T06:19:25.321Z,1014.99
2016-08-31T06:20:25.326Z,1015.05
2016-08-31T06:21:25.336Z,1015.06
2016-08-31T06:22:26.443Z,1015.05
2016-08-31T06:23:25.351Z,1015
2016-08-31T06:24:25.359Z,1015.03
2016-08-31T06:25:25.367Z,1015
2016-08-31T06:26:25.374Z,1014.99
2016-08-31T06:27:25.382Z,1015.03
2016-08-31T06:28:25.392Z,1015.06
2016-08-31T06:29:25.398Z,1014.99
2016-08-31T06:30:25.406Z,1015.08
2016-08-31T06:31:25.415Z,1015.17
2016-08-31T06:32:25.425Z,1015.15
2016-08-31T06:33:25.428Z,1015.03
2016-08-31T06:34:25.436Z,1015.12
2016-08-31T06:35:25.484Z,1015.21
2016-08-31T06:36:25.451Z,1015.26
2016-08-31T06:37:25.460Z,1015.12
2016-08-31T06:38:25.522Z,1015.3
2016-08-31T06:39:25.478Z,1015.76
2016-08-31T06:40:25.486Z,1016.04
2016-08-31T06:41:25.494Z,1016.08
2016-08-31T06:42:25.501Z,1016.07
2016-08-31T06:43:25.510Z,1016.12
2016-08-31T06:44:26.070Z,1016.12
2016-08-31T06:45:25.532Z,1016.11
2016-08-31T06:46:25.538Z,1016.09
2016-08-31T06:47:25.548Z,1016.07
2016-08-31T06:48:25.557Z,1016.11
2016-08-31T06:49:25.566Z,1016.11
2016-08-31T06:50:25.577Z,1016.09
2016-08-31T06:51:25.592Z,1016.09
2016-08-31T06:52:25.596Z,1016.13
2016-08-31T06:53:25.606Z,1016.11
2016-08-31T06:54:25.621Z,1016.15
2016-08-31T06:55:25.628Z,1016.15
2016-08-31T06:56:25.637Z,1016.05
2016-08-31T06:57:25.648Z,1015.55
2016-08-31T06:58:25.663Z,1015.09
2016-08-31T06:59:26.119Z,1014.98
2016-08-31T07:00:25.679Z,1014.97
2016-08-31T07:01:25.689Z,1015
2016-08-31T07:02:25.699Z,1014.99
2016-08-31T07:03:25.707Z,1014.96
2016-08-31T07:04:25.716Z,1014.93
2016-08-31T07:05:25.727Z,1014.92
2016-08-31T07:06:25.734Z,1014.94
2016-08-31T07:07:25.744Z,1014.93
2016-08-31T07:08:25.752Z,1014.93
2016-08-31T07:09:25.760Z,1014.97
2016-08-31T07:10:26.053Z,1014.93
2016-08-31T07:11:25.777Z,1014.91
2016-08-31T07:12:25.785Z,1014.88
2016-08-31T07:13:25.794Z,1014.86
2016-08-31T07:14:25.801Z,1014.85
2016-08-31T07:15:25.863Z,1014.91
2016-08-31T07:16:25.818Z,1014.95
2016-08-31T07:17:25.826Z,1014.95
2016-08-31T07:18:25.834Z,1014.91
2016-08-31T07:19:25.844Z,1014.9
2016-08-31T07:20:25.850Z,1014.9
2016-08-31T07:21:26.108Z,1014.93
2016-08-31T07:22:25.867Z,1014.87
2016-08-31T07:23:25.874Z,1014.91
2016-08-31T07:24:25.883Z,1014.9
2016-08-31T07:25:25.890Z,1014.83
2016-08-31T07:26:25.896Z,1014.87
2016-08-31T07:27:25.907Z,1014.89
2016-08-31T07:28:25.915Z,1014.86
2016-08-31T07:29:25.928Z,1014.89
2016-08-31T07:30:25.930Z,1014.89
2016-08-31T07:31:25.938Z,1014.89
2016-08-31T07:32:25.945Z,1014.88
2016-08-31T07:33:25.955Z,1014.88
2016-08-31T07:34:26.012Z,1014.88
2016-08-31T07:35:25.969Z,1014.89
2016-08-31T07:36:25.975Z,1014.86
2016-08-31T07:37:25.983Z,1014.85
2016-08-31T07:38:25.992Z,1014.83
2016-08-31T07:39:26.001Z,1014.82
2016-08-31T07:40:26.008Z,1014.79
2016-08-31T07:41:26.016Z,1014.79
2016-08-31T07:42:26.026Z,1014.77
2016-08-31T07:43:26.038Z,1014.77
2016-08-31T07:44:26.040Z,1014.73
2016-08-31T07:45:27.199Z,1014.74
2016-08-31T07:46:26.057Z,1014.73
2016-08-31T07:47:26.066Z,1014.72
2016-08-31T07:48:26.072Z,1014.72
2016-08-31T07:49:26.079Z,1014.75
2016-08-31T07:50:26.086Z,1014.74
2016-08-31T07:51:26.145Z,1014.74
2016-08-31T07:52:26.104Z,1014.77
2016-08-31T07:53:26.112Z,1014.72
2016-08-31T07:54:26.119Z,1014.75
2016-08-31T07:55:26.127Z,1014.75
2016-08-31T07:56:26.135Z,1014.73
2016-08-31T07:57:26.144Z,1014.75
2016-08-31T07:58:26.151Z,1014.75
2016-08-31T07:59:26.158Z,1014.77
2016-08-31T08:00:26.166Z,1014.72
2016-08-31T08:01:26.176Z,1014.73
2016-08-31T08:02:26.222Z,1014.69
2016-08-31T08:03:26.221Z,1014.73
2016-08-31T08:04:26.226Z,1014.71
2016-08-31T08:05:26.791Z,1014.73
2016-08-31T08:06:26.249Z,1014.78
2016-08-31T08:07:26.973Z,1014.74
2016-08-31T08:08:26.286Z,1014.74
2016-08-31T08:09:26.236Z,1014.76
2016-08-31T08:10:26.245Z,1014.73
2016-08-31T08:11:26.334Z,1014.72
2016-08-31T08:12:26.259Z,1014.75
2016-08-31T08:13:26.341Z,1014.72
2016-08-31T08:14:26.377Z,1014.71
2016-08-31T08:15:26.371Z,1014.69
2016-08-31T08:16:26.380Z,1014.68
2016-08-31T08:17:26.401Z,1014.71
2016-08-31T08:18:26.306Z,1014.71
2016-08-31T08:19:26.314Z,1014.72
2016-08-31T08:20:26.403Z,1014.74
2016-08-31T08:21:26.330Z,1014.7
2016-08-31T08:22:26.338Z,1014.7
2016-08-31T08:23:26.345Z,1014.72
2016-08-31T08:24:26.353Z,1014.7
2016-08-31T08:25:26.361Z,1014.72
2016-08-31T08:26:26.368Z,1014.71
2016-08-31T08:27:26.376Z,1014.69
2016-08-31T08:28:26.384Z,1014.72
2016-08-31T08:29:26.742Z,1014.73
2016-08-31T08:30:26.399Z,1014.74
2016-08-31T08:31:26.406Z,1014.78
2016-08-31T08:32:26.416Z,1014.76
2016-08-31T08:33:26.424Z,1014.76
2016-08-31T08:34:26.432Z,1014.78
2016-08-31T08:35:26.439Z,1014.78
2016-08-31T08:36:26.452Z,1014.77
2016-08-31T08:37:26.456Z,1014.76
2016-08-31T08:38:26.514Z,1014.81
2016-08-31T08:39:26.473Z,1014.81
2016-08-31T08:40:26.880Z,1014.85
2016-08-31T08:41:26.488Z,1014.84
2016-08-31T08:42:26.497Z,1014.81
2016-08-31T08:43:26.504Z,1014.81
2016-08-31T08:44:26.512Z,1014.83
2016-08-31T08:45:26.521Z,1014.85
2016-08-31T08:46:26.527Z,1014.83
2016-08-31T08:47:26.537Z,1014.81
2016-08-31T08:48:26.544Z,1014.8
2016-08-31T08:49:26.551Z,1014.8
2016-08-31T08:50:26.560Z,1014.84
2016-08-31T08:51:26.568Z,1014.77
2016-08-31T08:52:26.577Z,1014.83
2016-08-31T08:53:27.709Z,1014.86
2016-08-31T08:54:26.591Z,1014.83
2016-08-31T08:55:26.599Z,1014.79
2016-08-31T08:56:26.608Z,1014.77
2016-08-31T08:57:26.621Z,1014.77
2016-08-31T08:58:26.624Z,1014.81
2016-08-31T08:59:26.631Z,1014.76
2016-08-31T09:00:26.639Z,1014.78
2016-08-31T09:01:26.646Z,1014.8
2016-08-31T09:02:26.655Z,1014.79
2016-08-31T09:03:26.662Z,1014.8
2016-08-31T09:04:26.671Z,1014.82
2016-08-31T09:05:26.679Z,1014.74
2016-08-31T09:06:26.688Z,1014.76
2016-08-31T09:07:26.695Z,1014.75
2016-08-31T09:08:26.704Z,1014.71
2016-08-31T09:09:26.713Z,1014.69
2016-08-31T09:10:26.723Z,1014.72
2016-08-31T09:11:26.727Z,1014.75
2016-08-31T09:12:26.735Z,1014.75
2016-08-31T09:13:26.744Z,1014.74
2016-08-31T09:14:26.754Z,1014.75
2016-08-31T09:15:27.660Z,1014.74
2016-08-31T09:16:26.768Z,1014.76
2016-08-31T09:17:26.777Z,1014.77
2016-08-31T09:18:26.782Z,1014.72
2016-08-31T09:19:26.791Z,1014.7
2016-08-31T09:20:26.801Z,1014.7
2016-08-31T09:21:26.809Z,1014.73
2016-08-31T09:22:26.817Z,1014.67
2016-08-31T09:23:26.825Z,1014.68
2016-08-31T09:24:26.833Z,1014.67
2016-08-31T09:25:26.842Z,1014.64
2016-08-31T09:26:26.850Z,1014.63
2016-08-31T09:27:26.859Z,1014.62
2016-08-31T09:28:26.867Z,1014.61
2016-08-31T09:29:26.871Z,1014.64
2016-08-31T09:30:26.884Z,1014.62
2016-08-31T09:31:26.891Z,1014.64
2016-08-31T09:32:26.899Z,1014.7
2016-08-31T09:33:26.906Z,1014.72
2016-08-31T09:34:26.912Z,1014.72
2016-08-31T09:35:26.919Z,1014.71
2016-08-31T09:36:26.929Z,1014.73
2016-08-31T09:37:27.335Z,1014.73
2016-08-31T09:38:26.992Z,1014.71
2016-08-31T09:39:26.951Z,1014.73
2016-08-31T09:40:26.961Z,1014.7
2016-08-31T09:41:26.966Z,1014.69
2016-08-31T09:42:26.975Z,1014.67
2016-08-31T09:43:26.983Z,1014.67
2016-08-31T09:44:26.990Z,1014.71
2016-08-31T09:45:26.998Z,1014.69
2016-08-31T09:46:27.006Z,1014.71
2016-08-31T09:47:27.014Z,1014.7
2016-08-31T09:48:27.022Z,1014.66
2016-08-31T09:49:27.032Z,1014.69
2016-08-31T09:50:27.040Z,1014.71
2016-08-31T09:51:27.046Z,1014.71
2016-08-31T09:52:27.055Z,1014.7
2016-08-31T09:53:27.064Z,1014.67
2016-08-31T09:54:27.072Z,1014.62
2016-08-31T09:55:27.083Z,1014.66
2016-08-31T09:56:27.088Z,1014.63
2016-08-31T09:57:27.096Z,1014.59
2016-08-31T09:58:27.105Z,1014.63
2016-08-31T09:59:27.313Z,1014.64
2016-08-31T10:00:27.121Z,1014.58
2016-08-31T10:01:27.129Z,1014.59
2016-08-31T10:02:27.139Z,1014.57
2016-08-31T10:03:27.145Z,1014.58
2016-08-31T10:04:27.153Z,1014.59
2016-08-31T10:05:27.214Z,1014.52
2016-08-31T10:06:27.169Z,1014.53
2016-08-31T10:07:27.229Z,1014.5
2016-08-31T10:08:27.188Z,1014.55
2016-08-31T10:09:27.195Z,1014.52
2016-08-31T10:10:27.205Z,1014.52
2016-08-31T10:11:27.262Z,1014.47
2016-08-31T10:12:27.223Z,1014.46
2016-08-31T10:13:27.230Z,1014.42
2016-08-31T10:14:27.839Z,1014.44
2016-08-31T10:15:27.248Z,1014.48
2016-08-31T10:16:27.255Z,1014.44
2016-08-31T10:17:27.265Z,1014.45
2016-08-31T10:18:27.274Z,1014.45
2016-08-31T10:19:27.282Z,1014.43
2016-08-31T10:20:27.291Z,1014.43
2016-08-31T10:21:27.296Z,1014.42
2016-08-31T10:22:27.306Z,1014.42
2016-08-31T10:23:27.316Z,1014.45
2016-08-31T10:24:27.321Z,1014.41
2016-08-31T10:25:27.331Z,1014.41
2016-08-31T10:26:27.341Z,1014.36
2016-08-31T10:27:27.347Z,1014.43
2016-08-31T10:28:27.356Z,1014.42
2016-08-31T10:29:27.364Z,1014.37
2016-08-31T10:30:27.373Z,1014.36
2016-08-31T10:31:27.381Z,1014.41
2016-08-31T10:32:27.389Z,1014.41
2016-08-31T10:33:27.398Z,1014.39
2016-08-31T10:34:27.419Z,1014.44
2016-08-31T10:35:27.423Z,1014.36
2016-08-31T10:36:27.972Z,1014.36
2016-08-31T10:37:27.432Z,1014.34
2016-08-31T10:38:27.441Z,1014.35
2016-08-31T10:39:27.448Z,1014.33
2016-08-31T10:40:27.462Z,1014.34
2016-08-31T10:41:27.516Z,1014.32
2016-08-31T10:42:27.474Z,1014.29
2016-08-31T10:43:27.481Z,1014.26
2016-08-31T10:44:27.490Z,1014.26
2016-08-31T10:45:27.499Z,1014.22
2016-08-31T10:46:27.507Z,1014.23
2016-08-31T10:47:27.515Z,1014.2
2016-08-31T10:48:27.525Z,1014.2
2016-08-31T10:49:27.534Z,1014.18
2016-08-31T10:50:27.542Z,1014.12
2016-08-31T10:51:27.548Z,1014.12
2016-08-31T10:52:27.558Z,1014.15
2016-08-31T10:53:27.566Z,1014.2
2016-08-31T10:54:27.574Z,1014.2
2016-08-31T10:55:27.584Z,1014.2
2016-08-31T10:56:27.593Z,1014.17
2016-08-31T10:57:27.600Z,1014.19
2016-08-31T10:58:27.908Z,1014.18
2016-08-31T10:59:27.618Z,1014.19
2016-08-31T11:00:27.624Z,1014.16
2016-08-31T11:01:27.632Z,1014.2
2016-08-31T11:02:27.640Z,1014.23
2016-08-31T11:03:27.648Z,1014.2
2016-08-31T11:04:27.655Z,1014.19
2016-08-31T11:05:27.662Z,1014.18
2016-08-31T11:06:27.669Z,1014.16
2016-08-31T11:07:27.678Z,1014.2
2016-08-31T11:08:27.683Z,1014.18
2016-08-31T11:09:27.690Z,1014.17
2016-08-31T11:10:27.696Z,1014.14
2016-08-31T11:11:27.706Z,1014.18
2016-08-31T11:12:27.714Z,1014.17
2016-08-31T11:13:27.774Z,1014.17
2016-08-31T11:14:27.728Z,1014.25
2016-08-31T11:15:27.733Z,1014.18
2016-08-31T11:16:27.743Z,1014.22
2016-08-31T11:17:27.749Z,1014.25
2016-08-31T11:18:27.756Z,1014.19
2016-08-31T11:19:27.763Z,1014.19
2016-08-31T11:20:28.070Z,1014.2
2016-08-31T11:21:27.777Z,1014.18
2016-08-31T11:22:27.785Z,1014.2
2016-08-31T11:23:27.789Z,1014.19
2016-08-31T11:24:27.796Z,1014.21
2016-08-31T11:25:27.884Z,1014.14
2016-08-31T11:26:27.811Z,1014.18
2016-08-31T11:27:27.818Z,1014.17
2016-08-31T11:28:27.827Z,1014.13
2016-08-31T11:29:27.834Z,1014.16
2016-08-31T11:30:27.840Z,1014.16
2016-08-31T11:31:27.852Z,1014.18
2016-08-31T11:32:27.854Z,1014.09
2016-08-31T11:33:27.862Z,1014.13
2016-08-31T11:34:27.868Z,1014.11
2016-08-31T11:35:27.877Z,1014.12
2016-08-31T11:36:27.884Z,1014.14
2016-08-31T11:37:27.889Z,1014.13
2016-08-31T11:38:27.897Z,1014.13
2016-08-31T11:39:27.907Z,1014.15
2016-08-31T11:40:27.912Z,1014.09
2016-08-31T11:41:27.920Z,1014.14
2016-08-31T11:42:27.926Z,1014.13
2016-08-31T11:43:27.983Z,1014.14
2016-08-31T11:44:27.941Z,1014.13
2016-08-31T11:45:27.950Z,1014.12
2016-08-31T11:46:27.963Z,1014.08
2016-08-31T11:47:27.961Z,1014.12
2016-08-31T11:48:28.027Z,1014.12
2016-08-31T11:49:27.977Z,1014.1
2016-08-31T11:50:27.987Z,1014.07
2016-08-31T11:51:27.993Z,1014.13
2016-08-31T11:52:27.999Z,1014.09
2016-08-31T11:53:28.011Z,1014.09
2016-08-31T11:54:28.013Z,1014.09
2016-08-31T11:55:28.020Z,1014.08
2016-08-31T11:56:28.025Z,1014.07
2016-08-31T11:57:28.334Z,1014.05
2016-08-31T11:58:28.040Z,1014.04
2016-08-31T11:59:28.046Z,1013.95
2016-08-31T12:00:28.051Z,1014.01
2016-08-31T12:01:28.063Z,1014.04
2016-08-31T12:02:28.064Z,1014.05
2016-08-31T12:03:28.072Z,1013.97
2016-08-31T12:04:28.079Z,1013.95
2016-08-31T12:05:28.084Z,1013.94
2016-08-31T12:06:28.088Z,1013.99
2016-08-31T12:07:28.096Z,1013.96
2016-08-31T12:08:28.102Z,1013.97
2016-08-31T12:09:28.107Z,1013.96